sensor_id;sensor_type;location;lat;lon;timestamp;P1;durP1;ratioP1;P2;durP2;ratioP2
77016;SDS011;65949;53.132;17.930;2023-07-30T00:00:22;11.00;;;5.60;;
77016;SDS011;65949;53.132;17.930;2023-07-30T00:03:08;8.00;;;5.20;;
77016;SDS011;65949;53.132;17.930;2023-07-30T00:05:35;10.20;;;5.50;;
77016;SDS011;65949;53.132;17.930;2023-07-30T00:08:01;11.50;;;6.10;;
77016;SDS011;65949;53.132;17.930;2023-07-30T00:10:28;9.00;;;5.40;;
77016;SDS011;65949;53.132;17.930;2023-07-30T00:12:55;10.80;;;4.90;;
77016;SDS011;65949;53.132;17.930;2023-07-30T00:15:22;11.20;;;5.20;;
77016;SDS011;65949;53.132;17.930;2023-07-30T00:17:49;8.30;;;4.50;;
77016;SDS011;65949;53.132;17.930;2023-07-30T00:20:16;10.90;;;5.30;;
77016;SDS011;65949;53.132;17.930;2023-07-30T00:22:43;9.30;;;4.80;;
77016;SDS011;65949;53.132;17.930;2023-07-30T00:25:09;9.00;;;5.10;;
77016;SDS011;65949;53.132;17.930;2023-07-30T00:27:36;9.40;;;5.30;;
77016;SDS011;65949;53.132;17.930;2023-07-30T00:30:02;9.90;;;5.50;;
77016;SDS011;65949;53.132;17.930;2023-07-30T00:32:29;9.80;;;6.20;;
77016;SDS011;65949;53.132;17.930;2023-07-30T00:34:56;11.90;;;6.30;;
77016;SDS011;65949;53.132;17.930;2023-07-30T00:37:22;11.00;;;6.00;;
77016;SDS011;65949;53.132;17.930;2023-07-30T00:39:50;10.60;;;6.00;;
77016;SDS011;65949;53.132;17.930;2023-07-30T00:42:16;11.50;;;6.50;;
77016;SDS011;65949;53.132;17.930;2023-07-30T00:44:43;12.20;;;6.00;;
77016;SDS011;65949;53.132;17.930;2023-07-30T00:47:10;11.50;;;5.80;;
77016;SDS011;65949;53.132;17.930;2023-07-30T00:49:36;11.50;;;6.00;;
77016;SDS011;65949;53.132;17.930;2023-07-30T00:52:03;11.20;;;5.30;;
77016;SDS011;65949;53.132;17.930;2023-07-30T00:54:30;11.60;;;5.80;;
77016;SDS011;65949;53.132;17.930;2023-07-30T00:56:57;10.50;;;5.90;;
77016;SDS011;65949;53.132;17.930;2023-07-30T00:59:23;9.70;;;5.50;;
77016;SDS011;65949;53.132;17.930;2023-07-30T01:01:51;10.60;;;6.00;;
77016;SDS011;65949;53.132;17.930;2023-07-30T01:04:18;10.30;;;6.20;;
77016;SDS011;65949;53.132;17.930;2023-07-30T01:06:45;11.10;;;6.60;;
77016;SDS011;65949;53.132;17.930;2023-07-30T01:09:12;11.40;;;6.60;;
77016;SDS011;65949;53.132;17.930;2023-07-30T01:11:39;10.80;;;6.30;;
77016;SDS011;65949;53.132;17.930;2023-07-30T01:14:07;12.20;;;7.20;;
77016;SDS011;65949;53.132;17.930;2023-07-30T01:16:36;12.00;;;7.00;;
77016;SDS011;65949;53.132;17.930;2023-07-30T01:19:02;12.30;;;7.00;;
77016;SDS011;65949;53.132;17.930;2023-07-30T01:21:32;11.20;;;7.40;;
77016;SDS011;65949;53.132;17.930;2023-07-30T01:23:59;12.20;;;7.00;;
77016;SDS011;65949;53.132;17.930;2023-07-30T01:29:36;11.40;;;6.60;;
77016;SDS011;65949;53.132;17.930;2023-07-30T01:32:07;13.70;;;6.80;;
77016;SDS011;65949;53.132;17.930;2023-07-30T01:34:37;10.70;;;6.50;;
77016;SDS011;65949;53.132;17.930;2023-07-30T01:37:07;10.50;;;6.20;;
77016;SDS011;65949;53.132;17.930;2023-07-30T01:39:38;10.60;;;6.50;;
77016;SDS011;65949;53.132;17.930;2023-07-30T01:42:06;11.90;;;6.60;;
77016;SDS011;65949;53.132;17.930;2023-07-30T01:44:33;11.50;;;7.20;;
77016;SDS011;65949;53.132;17.930;2023-07-30T01:47:00;12.10;;;7.20;;
77016;SDS011;65949;53.132;17.930;2023-07-30T01:49:26;11.10;;;6.80;;
77016;SDS011;65949;53.132;17.930;2023-07-30T01:51:53;13.40;;;7.40;;
77016;SDS011;65949;53.132;17.930;2023-07-30T01:54:20;12.70;;;6.70;;
77016;SDS011;65949;53.132;17.930;2023-07-30T01:56:47;12.50;;;7.30;;
77016;SDS011;65949;53.132;17.930;2023-07-30T01:59:14;12.80;;;7.20;;
77016;SDS011;65949;53.132;17.930;2023-07-30T02:01:41;12.90;;;7.30;;
77016;SDS011;65949;53.132;17.930;2023-07-30T02:04:08;12.00;;;7.50;;
77016;SDS011;65949;53.132;17.930;2023-07-30T02:06:35;12.20;;;7.00;;
77016;SDS011;65949;53.132;17.930;2023-07-30T02:09:01;13.40;;;6.90;;
77016;SDS011;65949;53.132;17.930;2023-07-30T02:11:28;11.20;;;7.50;;
77016;SDS011;65949;53.132;17.930;2023-07-30T02:13:55;12.20;;;7.00;;
77016;SDS011;65949;53.132;17.930;2023-07-30T02:16:21;11.40;;;6.60;;
77016;SDS011;65949;53.132;17.930;2023-07-30T02:18:48;13.80;;;7.40;;
77016;SDS011;65949;53.132;17.930;2023-07-30T02:21:15;11.80;;;7.40;;
77016;SDS011;65949;53.132;17.930;2023-07-30T02:23:41;13.60;;;7.30;;
77016;SDS011;65949;53.132;17.930;2023-07-30T02:26:08;14.20;;;7.90;;
77016;SDS011;65949;53.132;17.930;2023-07-30T02:28:34;12.00;;;7.30;;
77016;SDS011;65949;53.132;17.930;2023-07-30T02:31:01;13.10;;;7.30;;
77016;SDS011;65949;53.132;17.930;2023-07-30T02:33:27;12.00;;;7.50;;
77016;SDS011;65949;53.132;17.930;2023-07-30T02:35:54;14.40;;;8.00;;
77016;SDS011;65949;53.132;17.930;2023-07-30T02:38:20;12.20;;;7.60;;
77016;SDS011;65949;53.132;17.930;2023-07-30T02:40:47;12.80;;;7.10;;
77016;SDS011;65949;53.132;17.930;2023-07-30T02:43:14;13.20;;;7.40;;
77016;SDS011;65949;53.132;17.930;2023-07-30T02:45:40;14.10;;;7.90;;
77016;SDS011;65949;53.132;17.930;2023-07-30T02:48:07;12.70;;;7.30;;
77016;SDS011;65949;53.132;17.930;2023-07-30T02:50:33;13.40;;;7.20;;
77016;SDS011;65949;53.132;17.930;2023-07-30T02:53:00;12.80;;;7.40;;
77016;SDS011;65949;53.132;17.930;2023-07-30T02:55:27;13.70;;;7.20;;
77016;SDS011;65949;53.132;17.930;2023-07-30T02:57:53;13.30;;;8.50;;
77016;SDS011;65949;53.132;17.930;2023-07-30T03:00:20;13.30;;;8.00;;
77016;SDS011;65949;53.132;17.930;2023-07-30T03:02:46;13.40;;;7.60;;
77016;SDS011;65949;53.132;17.930;2023-07-30T03:05:13;12.70;;;7.80;;
77016;SDS011;65949;53.132;17.930;2023-07-30T03:07:40;13.50;;;7.90;;
77016;SDS011;65949;53.132;17.930;2023-07-30T03:10:06;13.20;;;8.20;;
77016;SDS011;65949;53.132;17.930;2023-07-30T03:12:33;14.20;;;8.10;;
77016;SDS011;65949;53.132;17.930;2023-07-30T03:15:00;14.10;;;8.30;;
77016;SDS011;65949;53.132;17.930;2023-07-30T03:17:27;17.00;;;8.60;;
77016;SDS011;65949;53.132;17.930;2023-07-30T03:19:54;13.00;;;8.40;;
77016;SDS011;65949;53.132;17.930;2023-07-30T03:22:20;14.70;;;8.50;;
77016;SDS011;65949;53.132;17.930;2023-07-30T03:24:47;14.60;;;8.90;;
77016;SDS011;65949;53.132;17.930;2023-07-30T03:27:14;14.50;;;9.00;;
77016;SDS011;65949;53.132;17.930;2023-07-30T03:29:40;14.40;;;8.00;;
77016;SDS011;65949;53.132;17.930;2023-07-30T03:32:07;15.40;;;8.50;;
77016;SDS011;65949;53.132;17.930;2023-07-30T03:34:34;12.70;;;7.30;;
77016;SDS011;65949;53.132;17.930;2023-07-30T03:37:00;17.20;;;8.90;;
77016;SDS011;65949;53.132;17.930;2023-07-30T03:39:27;12.90;;;7.10;;
77016;SDS011;65949;53.132;17.930;2023-07-30T03:41:54;13.10;;;8.30;;
77016;SDS011;65949;53.132;17.930;2023-07-30T03:44:20;14.30;;;8.20;;
77016;SDS011;65949;53.132;17.930;2023-07-30T03:46:47;14.70;;;8.80;;
77016;SDS011;65949;53.132;17.930;2023-07-30T03:49:13;15.40;;;9.10;;
77016;SDS011;65949;53.132;17.930;2023-07-30T03:51:40;15.30;;;8.90;;
77016;SDS011;65949;53.132;17.930;2023-07-30T03:54:07;17.30;;;9.40;;
77016;SDS011;65949;53.132;17.930;2023-07-30T03:56:33;14.60;;;8.60;;
77016;SDS011;65949;53.132;17.930;2023-07-30T03:59:00;15.30;;;9.00;;
77016;SDS011;65949;53.132;17.930;2023-07-30T04:01:27;18.10;;;9.10;;
77016;SDS011;65949;53.132;17.930;2023-07-30T04:03:55;15.00;;;9.10;;
77016;SDS011;65949;53.132;17.930;2023-07-30T04:06:22;16.70;;;9.20;;
77016;SDS011;65949;53.132;17.930;2023-07-30T04:08:49;15.50;;;8.80;;
77016;SDS011;65949;53.132;17.930;2023-07-30T04:11:16;17.30;;;9.70;;
77016;SDS011;65949;53.132;17.930;2023-07-30T04:13:42;16.00;;;9.20;;
77016;SDS011;65949;53.132;17.930;2023-07-30T04:16:09;16.30;;;9.40;;
77016;SDS011;65949;53.132;17.930;2023-07-30T04:18:36;16.30;;;9.30;;
77016;SDS011;65949;53.132;17.930;2023-07-30T04:21:02;17.20;;;9.60;;
77016;SDS011;65949;53.132;17.930;2023-07-30T04:23:29;17.50;;;9.30;;
77016;SDS011;65949;53.132;17.930;2023-07-30T04:25:55;17.20;;;9.60;;
77016;SDS011;65949;53.132;17.930;2023-07-30T04:28:22;16.10;;;8.90;;
77016;SDS011;65949;53.132;17.930;2023-07-30T04:30:49;15.90;;;9.50;;
77016;SDS011;65949;53.132;17.930;2023-07-30T04:33:16;16.30;;;9.60;;
77016;SDS011;65949;53.132;17.930;2023-07-30T04:35:42;18.20;;;10.00;;
77016;SDS011;65949;53.132;17.930;2023-07-30T04:38:09;17.90;;;9.80;;
77016;SDS011;65949;53.132;17.930;2023-07-30T04:40:36;18.50;;;10.40;;
77016;SDS011;65949;53.132;17.930;2023-07-30T04:43:02;15.80;;;9.60;;
77016;SDS011;65949;53.132;17.930;2023-07-30T04:45:30;16.60;;;9.70;;
77016;SDS011;65949;53.132;17.930;2023-07-30T04:47:57;18.90;;;11.00;;
77016;SDS011;65949;53.132;17.930;2023-07-30T04:50:24;20.50;;;10.60;;
77016;SDS011;65949;53.132;17.930;2023-07-30T04:52:51;17.50;;;10.00;;
77016;SDS011;65949;53.132;17.930;2023-07-30T04:55:18;16.90;;;11.40;;
77016;SDS011;65949;53.132;17.930;2023-07-30T04:57:45;17.00;;;10.90;;
77016;SDS011;65949;53.132;17.930;2023-07-30T05:00:11;22.30;;;11.30;;
77016;SDS011;65949;53.132;17.930;2023-07-30T05:02:38;18.40;;;11.10;;
77016;SDS011;65949;53.132;17.930;2023-07-30T05:05:05;17.40;;;11.20;;
77016;SDS011;65949;53.132;17.930;2023-07-30T05:07:32;17.90;;;11.10;;
77016;SDS011;65949;53.132;17.930;2023-07-30T05:09:58;18.40;;;11.50;;
77016;SDS011;65949;53.132;17.930;2023-07-30T05:12:25;14.30;;;9.80;;
77016;SDS011;65949;53.132;17.930;2023-07-30T05:14:52;16.60;;;10.40;;
77016;SDS011;65949;53.132;17.930;2023-07-30T05:17:18;16.70;;;10.50;;
77016;SDS011;65949;53.132;17.930;2023-07-30T05:19:45;15.50;;;10.50;;
77016;SDS011;65949;53.132;17.930;2023-07-30T05:22:11;15.70;;;10.90;;
77016;SDS011;65949;53.132;17.930;2023-07-30T05:24:38;16.10;;;10.70;;
77016;SDS011;65949;53.132;17.930;2023-07-30T05:27:05;16.50;;;10.00;;
77016;SDS011;65949;53.132;17.930;2023-07-30T05:29:31;15.90;;;10.50;;
77016;SDS011;65949;53.132;17.930;2023-07-30T05:31:58;17.40;;;10.90;;
77016;SDS011;65949;53.132;17.930;2023-07-30T05:34:25;16.60;;;10.80;;
77016;SDS011;65949;53.132;17.930;2023-07-30T05:36:51;16.20;;;10.50;;
77016;SDS011;65949;53.132;17.930;2023-07-30T05:39:18;15.00;;;10.00;;
77016;SDS011;65949;53.132;17.930;2023-07-30T05:41:44;17.20;;;10.40;;
77016;SDS011;65949;53.132;17.930;2023-07-30T05:44:11;16.70;;;11.50;;
77016;SDS011;65949;53.132;17.930;2023-07-30T05:46:37;16.60;;;10.60;;
77016;SDS011;65949;53.132;17.930;2023-07-30T05:49:04;15.80;;;10.50;;
77016;SDS011;65949;53.132;17.930;2023-07-30T05:51:31;16.30;;;11.10;;
77016;SDS011;65949;53.132;17.930;2023-07-30T05:53:57;14.00;;;9.90;;
77016;SDS011;65949;53.132;17.930;2023-07-30T05:56:24;15.40;;;10.20;;
77016;SDS011;65949;53.132;17.930;2023-07-30T05:58:50;14.60;;;10.30;;
77016;SDS011;65949;53.132;17.930;2023-07-30T06:01:17;15.60;;;10.90;;
77016;SDS011;65949;53.132;17.930;2023-07-30T06:03:43;16.50;;;10.90;;
77016;SDS011;65949;53.132;17.930;2023-07-30T06:06:10;15.70;;;10.40;;
77016;SDS011;65949;53.132;17.930;2023-07-30T06:08:36;15.60;;;11.50;;
77016;SDS011;65949;53.132;17.930;2023-07-30T06:11:03;14.20;;;9.60;;
77016;SDS011;65949;53.132;17.930;2023-07-30T06:13:30;15.30;;;10.30;;
77016;SDS011;65949;53.132;17.930;2023-07-30T06:15:56;17.40;;;12.00;;
77016;SDS011;65949;53.132;17.930;2023-07-30T06:18:23;15.10;;;10.70;;
77016;SDS011;65949;53.132;17.930;2023-07-30T06:20:49;16.30;;;10.10;;
77016;SDS011;65949;53.132;17.930;2023-07-30T06:23:16;14.70;;;10.60;;
77016;SDS011;65949;53.132;17.930;2023-07-30T06:25:42;14.30;;;11.10;;
77016;SDS011;65949;53.132;17.930;2023-07-30T06:28:09;14.90;;;11.10;;
77016;SDS011;65949;53.132;17.930;2023-07-30T06:30:36;15.60;;;10.90;;
77016;SDS011;65949;53.132;17.930;2023-07-30T06:33:03;15.90;;;11.00;;
77016;SDS011;65949;53.132;17.930;2023-07-30T06:35:29;16.20;;;11.10;;
77016;SDS011;65949;53.132;17.930;2023-07-30T06:37:56;15.20;;;10.30;;
77016;SDS011;65949;53.132;17.930;2023-07-30T06:40:22;15.10;;;10.50;;
77016;SDS011;65949;53.132;17.930;2023-07-30T06:42:49;14.40;;;10.40;;
77016;SDS011;65949;53.132;17.930;2023-07-30T06:45:16;15.10;;;10.90;;
77016;SDS011;65949;53.132;17.930;2023-07-30T06:47:42;13.60;;;9.50;;
77016;SDS011;65949;53.132;17.930;2023-07-30T06:50:09;13.20;;;10.00;;
77016;SDS011;65949;53.132;17.930;2023-07-30T06:52:36;12.40;;;9.40;;
77016;SDS011;65949;53.132;17.930;2023-07-30T06:55:03;12.10;;;9.70;;
77016;SDS011;65949;53.132;17.930;2023-07-30T06:57:30;12.00;;;9.60;;
77016;SDS011;65949;53.132;17.930;2023-07-30T06:59:56;12.80;;;8.80;;
77016;SDS011;65949;53.132;17.930;2023-07-30T07:02:24;12.00;;;8.90;;
77016;SDS011;65949;53.132;17.930;2023-07-30T07:04:51;11.60;;;8.70;;
77016;SDS011;65949;53.132;17.930;2023-07-30T07:07:17;13.30;;;8.80;;
77016;SDS011;65949;53.132;17.930;2023-07-30T07:09:44;11.70;;;8.60;;
77016;SDS011;65949;53.132;17.930;2023-07-30T07:12:10;11.80;;;9.00;;
77016;SDS011;65949;53.132;17.930;2023-07-30T07:14:37;12.70;;;9.10;;
77016;SDS011;65949;53.132;17.930;2023-07-30T07:17:04;13.20;;;9.00;;
77016;SDS011;65949;53.132;17.930;2023-07-30T07:19:30;11.20;;;8.60;;
77016;SDS011;65949;53.132;17.930;2023-07-30T07:21:57;11.70;;;8.50;;
77016;SDS011;65949;53.132;17.930;2023-07-30T07:24:24;14.30;;;8.80;;
77016;SDS011;65949;53.132;17.930;2023-07-30T07:26:50;11.40;;;9.00;;
77016;SDS011;65949;53.132;17.930;2023-07-30T07:29:17;11.70;;;8.70;;
77016;SDS011;65949;53.132;17.930;2023-07-30T07:31:44;11.30;;;8.90;;
77016;SDS011;65949;53.132;17.930;2023-07-30T07:34:11;11.10;;;7.80;;
77016;SDS011;65949;53.132;17.930;2023-07-30T07:36:38;9.70;;;7.50;;
77016;SDS011;65949;53.132;17.930;2023-07-30T07:39:05;10.90;;;8.10;;
77016;SDS011;65949;53.132;17.930;2023-07-30T07:41:31;10.20;;;8.10;;
77016;SDS011;65949;53.132;17.930;2023-07-30T07:43:58;13.00;;;7.60;;
77016;SDS011;65949;53.132;17.930;2023-07-30T07:46:25;11.30;;;7.90;;
77016;SDS011;65949;53.132;17.930;2023-07-30T07:48:53;10.90;;;7.50;;
77016;SDS011;65949;53.132;17.930;2023-07-30T07:51:20;10.10;;;7.50;;
77016;SDS011;65949;53.132;17.930;2023-07-30T07:53:46;10.10;;;7.80;;
77016;SDS011;65949;53.132;17.930;2023-07-30T07:56:13;11.30;;;7.50;;
77016;SDS011;65949;53.132;17.930;2023-07-30T07:58:40;10.30;;;7.20;;
77016;SDS011;65949;53.132;17.930;2023-07-30T08:01:06;10.80;;;7.30;;
77016;SDS011;65949;53.132;17.930;2023-07-30T08:03:33;10.50;;;7.10;;
77016;SDS011;65949;53.132;17.930;2023-07-30T08:05:59;9.30;;;7.10;;
77016;SDS011;65949;53.132;17.930;2023-07-30T08:08:26;9.80;;;6.60;;
77016;SDS011;65949;53.132;17.930;2023-07-30T08:10:53;8.60;;;6.90;;
77016;SDS011;65949;53.132;17.930;2023-07-30T08:13:20;10.00;;;6.90;;
77016;SDS011;65949;53.132;17.930;2023-07-30T08:15:47;10.20;;;6.90;;
77016;SDS011;65949;53.132;17.930;2023-07-30T08:18:13;9.40;;;7.30;;
77016;SDS011;65949;53.132;17.930;2023-07-30T08:20:40;9.20;;;6.60;;
77016;SDS011;65949;53.132;17.930;2023-07-30T08:23:06;8.40;;;6.00;;
77016;SDS011;65949;53.132;17.930;2023-07-30T08:25:33;8.60;;;6.50;;
77016;SDS011;65949;53.132;17.930;2023-07-30T08:27:59;9.20;;;6.00;;
77016;SDS011;65949;53.132;17.930;2023-07-30T08:30:26;9.50;;;6.50;;
77016;SDS011;65949;53.132;17.930;2023-07-30T08:32:53;11.00;;;7.00;;
77016;SDS011;65949;53.132;17.930;2023-07-30T08:35:19;8.60;;;6.50;;
77016;SDS011;65949;53.132;17.930;2023-07-30T08:37:46;9.90;;;7.00;;
77016;SDS011;65949;53.132;17.930;2023-07-30T08:40:12;10.10;;;7.30;;
77016;SDS011;65949;53.132;17.930;2023-07-30T08:42:40;10.10;;;7.50;;
77016;SDS011;65949;53.132;17.930;2023-07-30T08:45:07;10.00;;;7.00;;
77016;SDS011;65949;53.132;17.930;2023-07-30T08:47:34;9.60;;;7.20;;
77016;SDS011;65949;53.132;17.930;2023-07-30T08:50:02;10.80;;;7.10;;
77016;SDS011;65949;53.132;17.930;2023-07-30T08:52:29;10.90;;;7.60;;
77016;SDS011;65949;53.132;17.930;2023-07-30T08:54:57;9.50;;;7.70;;
77016;SDS011;65949;53.132;17.930;2023-07-30T08:57:28;10.50;;;7.00;;
77016;SDS011;65949;53.132;17.930;2023-07-30T09:00:14;9.30;;;7.40;;
77016;SDS011;65949;53.132;17.930;2023-07-30T09:02:44;9.60;;;6.60;;
77016;SDS011;65949;53.132;17.930;2023-07-30T09:05:15;10.00;;;6.80;;
77016;SDS011;65949;53.132;17.930;2023-07-30T09:07:43;10.30;;;7.40;;
77016;SDS011;65949;53.132;17.930;2023-07-30T09:10:09;9.20;;;6.10;;
77016;SDS011;65949;53.132;17.930;2023-07-30T09:12:36;8.90;;;6.00;;
77016;SDS011;65949;53.132;17.930;2023-07-30T09:15:03;10.30;;;6.90;;
77016;SDS011;65949;53.132;17.930;2023-07-30T09:17:33;11.30;;;6.60;;
77016;SDS011;65949;53.132;17.930;2023-07-30T09:20:01;9.50;;;7.40;;
77016;SDS011;65949;53.132;17.930;2023-07-30T09:22:30;10.80;;;7.30;;
77016;SDS011;65949;53.132;17.930;2023-07-30T09:25:06;11.80;;;7.00;;
77016;SDS011;65949;53.132;17.930;2023-07-30T09:27:34;9.80;;;7.60;;
77016;SDS011;65949;53.132;17.930;2023-07-30T09:30:02;9.00;;;7.10;;
77016;SDS011;65949;53.132;17.930;2023-07-30T09:32:33;10.20;;;7.80;;
77016;SDS011;65949;53.132;17.930;2023-07-30T09:35:04;9.40;;;6.90;;
77016;SDS011;65949;53.132;17.930;2023-07-30T09:37:38;9.70;;;7.10;;
77016;SDS011;65949;53.132;17.930;2023-07-30T09:40:07;12.30;;;7.40;;
77016;SDS011;65949;53.132;17.930;2023-07-30T09:42:36;8.60;;;6.60;;
77016;SDS011;65949;53.132;17.930;2023-07-30T09:45:06;9.20;;;7.10;;
77016;SDS011;65949;53.132;17.930;2023-07-30T09:47:33;9.30;;;7.20;;
77016;SDS011;65949;53.132;17.930;2023-07-30T09:50:03;8.40;;;6.70;;
77016;SDS011;65949;53.132;17.930;2023-07-30T09:52:30;8.40;;;6.40;;
77016;SDS011;65949;53.132;17.930;2023-07-30T09:55:00;10.50;;;7.00;;
77016;SDS011;65949;53.132;17.930;2023-07-30T09:57:26;9.30;;;7.10;;
77016;SDS011;65949;53.132;17.930;2023-07-30T09:59:53;10.80;;;7.00;;
77016;SDS011;65949;53.132;17.930;2023-07-30T10:02:20;10.30;;;6.70;;
77016;SDS011;65949;53.132;17.930;2023-07-30T10:04:50;11.30;;;7.70;;
77016;SDS011;65949;53.132;17.930;2023-07-30T10:07:20;13.40;;;6.80;;
77016;SDS011;65949;53.132;17.930;2023-07-30T10:09:50;9.20;;;6.90;;
77016;SDS011;65949;53.132;17.930;2023-07-30T10:12:23;9.00;;;6.00;;
77016;SDS011;65949;53.132;17.930;2023-07-30T10:14:53;9.10;;;6.50;;
77016;SDS011;65949;53.132;17.930;2023-07-30T10:17:20;10.20;;;6.80;;
77016;SDS011;65949;53.132;17.930;2023-07-30T10:19:48;10.40;;;7.10;;
77016;SDS011;65949;53.132;17.930;2023-07-30T10:22:22;9.60;;;6.50;;
77016;SDS011;65949;53.132;17.930;2023-07-30T10:24:58;9.10;;;6.20;;
77016;SDS011;65949;53.132;17.930;2023-07-30T10:27:38;10.00;;;6.50;;
77016;SDS011;65949;53.132;17.930;2023-07-30T10:30:13;10.00;;;6.70;;
77016;SDS011;65949;53.132;17.930;2023-07-30T10:33:02;16.20;;;6.80;;
77016;SDS011;65949;53.132;17.930;2023-07-30T10:38:17;9.90;;;7.20;;
77016;SDS011;65949;53.132;17.930;2023-07-30T10:41:08;11.40;;;6.90;;
77016;SDS011;65949;53.132;17.930;2023-07-30T10:43:36;9.70;;;6.20;;
77016;SDS011;65949;53.132;17.930;2023-07-30T10:46:03;8.50;;;6.40;;
77016;SDS011;65949;53.132;17.930;2023-07-30T10:48:30;9.10;;;6.20;;
77016;SDS011;65949;53.132;17.930;2023-07-30T10:51:00;8.30;;;6.00;;
77016;SDS011;65949;53.132;17.930;2023-07-30T10:53:27;7.80;;;5.30;;
77016;SDS011;65949;53.132;17.930;2023-07-30T10:55:54;9.50;;;6.40;;
77016;SDS011;65949;53.132;17.930;2023-07-30T10:58:26;9.70;;;6.40;;
77016;SDS011;65949;53.132;17.930;2023-07-30T11:00:53;9.60;;;6.30;;
77016;SDS011;65949;53.132;17.930;2023-07-30T11:03:20;9.80;;;5.50;;
77016;SDS011;65949;53.132;17.930;2023-07-30T11:05:50;9.30;;;5.40;;
77016;SDS011;65949;53.132;17.930;2023-07-30T11:08:16;8.30;;;5.70;;
77016;SDS011;65949;53.132;17.930;2023-07-30T11:10:46;8.50;;;5.30;;
77016;SDS011;65949;53.132;17.930;2023-07-30T11:13:13;7.40;;;5.50;;
77016;SDS011;65949;53.132;17.930;2023-07-30T11:15:41;6.80;;;4.70;;
77016;SDS011;65949;53.132;17.930;2023-07-30T11:18:11;6.30;;;4.10;;
77016;SDS011;65949;53.132;17.930;2023-07-30T11:20:39;8.60;;;4.30;;
77016;SDS011;65949;53.132;17.930;2023-07-30T11:23:21;7.00;;;5.10;;
77016;SDS011;65949;53.132;17.930;2023-07-30T11:25:49;8.60;;;4.50;;
77016;SDS011;65949;53.132;17.930;2023-07-30T11:33:30;6.40;;;3.80;;
77016;SDS011;65949;53.132;17.930;2023-07-30T11:35:58;6.90;;;4.50;;
77016;SDS011;65949;53.132;17.930;2023-07-30T11:38:27;7.10;;;4.70;;
77016;SDS011;65949;53.132;17.930;2023-07-30T11:40:54;6.60;;;4.30;;
77016;SDS011;65949;53.132;17.930;2023-07-30T11:43:22;7.00;;;4.10;;
77016;SDS011;65949;53.132;17.930;2023-07-30T11:45:49;8.30;;;5.10;;
77016;SDS011;65949;53.132;17.930;2023-07-30T11:48:35;6.60;;;4.50;;
77016;SDS011;65949;53.132;17.930;2023-07-30T11:51:02;7.20;;;4.90;;
77016;SDS011;65949;53.132;17.930;2023-07-30T11:56:21;8.30;;;5.40;;
77016;SDS011;65949;53.132;17.930;2023-07-30T11:59:01;8.60;;;5.60;;
77016;SDS011;65949;53.132;17.930;2023-07-30T12:01:31;7.50;;;5.50;;
77016;SDS011;65949;53.132;17.930;2023-07-30T12:04:02;7.90;;;6.30;;
77016;SDS011;65949;53.132;17.930;2023-07-30T12:06:46;9.50;;;5.50;;
77016;SDS011;65949;53.132;17.930;2023-07-30T12:09:15;9.00;;;5.80;;
77016;SDS011;65949;53.132;17.930;2023-07-30T12:11:50;8.40;;;5.00;;
77016;SDS011;65949;53.132;17.930;2023-07-30T12:15:09;8.40;;;5.00;;
77016;SDS011;65949;53.132;17.930;2023-07-30T12:17:16;6.70;;;5.10;;
77016;SDS011;65949;53.132;17.930;2023-07-30T12:19:42;6.80;;;5.00;;
77016;SDS011;65949;53.132;17.930;2023-07-30T12:22:09;6.80;;;4.50;;
77016;SDS011;65949;53.132;17.930;2023-07-30T12:24:36;7.60;;;4.50;;
77016;SDS011;65949;53.132;17.930;2023-07-30T12:27:02;9.10;;;5.00;;
77016;SDS011;65949;53.132;17.930;2023-07-30T12:29:29;7.30;;;4.60;;
77016;SDS011;65949;53.132;17.930;2023-07-30T12:31:56;7.50;;;4.20;;
77016;SDS011;65949;53.132;17.930;2023-07-30T12:34:23;6.40;;;4.20;;
77016;SDS011;65949;53.132;17.930;2023-07-30T12:36:52;6.00;;;3.90;;
77016;SDS011;65949;53.132;17.930;2023-07-30T12:39:18;7.10;;;4.10;;
77016;SDS011;65949;53.132;17.930;2023-07-30T12:41:45;5.80;;;4.00;;
77016;SDS011;65949;53.132;17.930;2023-07-30T12:44:12;6.60;;;4.30;;
77016;SDS011;65949;53.132;17.930;2023-07-30T12:46:38;5.90;;;4.10;;
77016;SDS011;65949;53.132;17.930;2023-07-30T12:49:05;6.60;;;3.70;;
77016;SDS011;65949;53.132;17.930;2023-07-30T12:51:32;6.00;;;4.20;;
77016;SDS011;65949;53.132;17.930;2023-07-30T12:53:59;7.20;;;4.40;;
77016;SDS011;65949;53.132;17.930;2023-07-30T12:56:26;6.10;;;4.40;;
77016;SDS011;65949;53.132;17.930;2023-07-30T12:58:53;6.40;;;4.00;;
77016;SDS011;65949;53.132;17.930;2023-07-30T13:01:19;5.90;;;3.80;;
77016;SDS011;65949;53.132;17.930;2023-07-30T13:03:46;6.70;;;3.80;;
77016;SDS011;65949;53.132;17.930;2023-07-30T13:06:14;7.00;;;3.90;;
77016;SDS011;65949;53.132;17.930;2023-07-30T13:08:41;6.90;;;3.50;;
77016;SDS011;65949;53.132;17.930;2023-07-30T13:11:08;6.40;;;3.50;;
77016;SDS011;65949;53.132;17.930;2023-07-30T13:13:34;6.20;;;3.60;;
77016;SDS011;65949;53.132;17.930;2023-07-30T13:16:01;6.90;;;3.70;;
77016;SDS011;65949;53.132;17.930;2023-07-30T13:18:28;5.60;;;3.90;;
77016;SDS011;65949;53.132;17.930;2023-07-30T13:20:55;5.60;;;3.70;;
77016;SDS011;65949;53.132;17.930;2023-07-30T13:23:22;5.70;;;3.30;;
77016;SDS011;65949;53.132;17.930;2023-07-30T13:25:51;7.00;;;4.20;;
77016;SDS011;65949;53.132;17.930;2023-07-30T13:28:18;5.60;;;3.10;;
77016;SDS011;65949;53.132;17.930;2023-07-30T13:30:44;6.50;;;4.20;;
77016;SDS011;65949;53.132;17.930;2023-07-30T13:33:11;5.40;;;3.30;;
77016;SDS011;65949;53.132;17.930;2023-07-30T13:35:37;5.40;;;3.10;;
77016;SDS011;65949;53.132;17.930;2023-07-30T13:38:04;5.80;;;3.00;;
77016;SDS011;65949;53.132;17.930;2023-07-30T13:40:31;5.60;;;3.30;;
77016;SDS011;65949;53.132;17.930;2023-07-30T13:42:57;6.10;;;3.50;;
77016;SDS011;65949;53.132;17.930;2023-07-30T13:45:24;6.00;;;3.50;;
77016;SDS011;65949;53.132;17.930;2023-07-30T13:47:50;6.50;;;3.20;;
77016;SDS011;65949;53.132;17.930;2023-07-30T13:50:17;4.70;;;2.80;;
77016;SDS011;65949;53.132;17.930;2023-07-30T13:52:44;5.60;;;2.80;;
77016;SDS011;65949;53.132;17.930;2023-07-30T13:55:10;5.30;;;2.80;;
77016;SDS011;65949;53.132;17.930;2023-07-30T13:57:37;4.20;;;2.50;;
77016;SDS011;65949;53.132;17.930;2023-07-30T14:00:04;4.90;;;2.90;;
77016;SDS011;65949;53.132;17.930;2023-07-30T14:02:32;4.80;;;2.60;;
77016;SDS011;65949;53.132;17.930;2023-07-30T14:04:59;5.20;;;2.80;;
77016;SDS011;65949;53.132;17.930;2023-07-30T14:07:25;5.30;;;3.70;;
77016;SDS011;65949;53.132;17.930;2023-07-30T14:09:52;5.30;;;3.40;;
77016;SDS011;65949;53.132;17.930;2023-07-30T14:12:18;6.60;;;2.60;;
77016;SDS011;65949;53.132;17.930;2023-07-30T14:14:45;4.50;;;2.60;;
77016;SDS011;65949;53.132;17.930;2023-07-30T14:17:11;4.70;;;2.60;;
77016;SDS011;65949;53.132;17.930;2023-07-30T14:19:38;5.30;;;2.90;;
77016;SDS011;65949;53.132;17.930;2023-07-30T14:22:05;4.70;;;2.60;;
77016;SDS011;65949;53.132;17.930;2023-07-30T14:24:32;5.00;;;3.10;;
77016;SDS011;65949;53.132;17.930;2023-07-30T14:26:58;4.50;;;2.50;;
77016;SDS011;65949;53.132;17.930;2023-07-30T14:29:25;5.50;;;3.00;;
77016;SDS011;65949;53.132;17.930;2023-07-30T14:31:51;5.50;;;3.00;;
77016;SDS011;65949;53.132;17.930;2023-07-30T14:34:18;5.90;;;3.10;;
77016;SDS011;65949;53.132;17.930;2023-07-30T14:36:45;6.00;;;2.20;;
77016;SDS011;65949;53.132;17.930;2023-07-30T14:39:11;4.50;;;2.30;;
77016;SDS011;65949;53.132;17.930;2023-07-30T14:41:38;5.20;;;2.50;;